Samuel Simoes

Olheiro-Chefe - Alverca
20 Fev 2028
Domingo
Processo

Personalidade

Adaptabilidade (11) Ambição (7) Controvérsia (11) Lealdade (9) Pressão (1) Profissionalismo (12) Espírito Esportivo (12) Temperamento (19)

Perfil

Estilo de Treinamento Democrático
Licença Continental A
Determinação 8
Gestão de Pessoas 8
Motivação 10
Disciplina 10
Satisfação no Trabalho
61%
Fadiga
0%
Função Olheiro-Chefe
Salário 12.3K p/s
Contrato 14.03.2030

Desempenho

Comportamento Bom
Eficácia do Treinamento
20%
Desenvolvimento do Jogador
30%
Prevenção de Lesões
55%
Implementação Tática
45%

Eventos Recentes

Participou de uma reunião de recrutamento agora
Recomendou um alvo de transferência agora
Recomendou um alvo de transferência agora
Recomendou um alvo de transferência agora
Recomendou um alvo de transferência agora
Recomendou um alvo de transferência 7d atrás
Recomendou um alvo de transferência 7d atrás
Recomendou um alvo de transferência 7d atrás

Monitorando agora

133
Jogador Clube Status Habilidade Confiança Observado Última observação Último voto
Mao Hosoya Everton Negociando 134 / 135 67% 1 01.01.2028 Aprovar
Santiago Hezze Chaves Negociando 132 / 133 62% 1 01.01.2028 Aprovar
Khama Dolly Utrecht Negociando 123 / 124 67% 1 01.01.2028 Aprovar
Olívio Tomé Benfica Perdido 108 / 132 69% 1 01.01.2028 -
Jordan van der Gaag Leiria Ativo 109 / 110 69% 1 28.06.2027 Aprovar
Dion Beljo Standard Liege Negociando 131 / 132 66% 1 01.06.2027 Aprovar
Kwadwo Baah Watford Ativo 126 / 127 40% 7 28.05.2027 -
Jack McGlynn Stoke City Ativo 132 / 126 40% 2 28.05.2027 -
Kwame Poku Queens Park Rangers Ativo 120 / 133 40% 2 26.05.2027 -
Joseph Hungbo Wigan Athletic Ativo 106 / 102 40% 1 26.05.2027 -
Scott Twine Bristol City Ativo 129 / 123 40% 3 25.05.2027 -
Mohamed Belloumi Hull City Ativo 137 / 132 40% 3 25.05.2027 -
Daniel Kyerewaa Reading Ativo 121 / 103 40% 6 19.05.2027 -
Tyreece Campbell Charlton Athletic Ativo 113 / 117 40% 1 16.05.2027 -
Ronald Swansea City Ativo 123 / 128 40% 4 14.05.2027 -
Romano Schmid Frosinone Ativo 147 / 132 40% 1 14.05.2027 -
Malick Fofana Sunderland Ativo 146 / 155 40% 1 14.05.2027 -
Florentino Luís Ipswich Town Ativo 137 / 135 40% 2 12.05.2027 -
Amine Adli Bournemouth Ativo 142 / 148 40% 3 12.05.2027 -
Ali Ahmed Norwich City Ativo 123 / 128 40% 3 12.05.2027 -
Isaiah Jones Luton Town Ativo 130 / 127 40% 5 10.05.2027 -
Santi García Gil Vicente Ativo 141 / 141 40% 5 09.05.2027 -
Wilson Isidor Sunderland Ativo 140 / 129 40% 2 09.05.2027 -
Dávid Strelec Middlesbrough Ativo 141 / 138 40% 2 09.05.2027 -
Lee Hyun-Ju Arouca Ativo 119 / 114 40% 2 08.05.2027 -
Simo Maritimo Ativo 124 / 123 40% 3 08.05.2027 -
Tyler Goodrham Oxford United Ativo 127 / 120 40% 4 07.05.2027 -
Joe Gelhardt Hull City Ativo 135 / 135 40% 1 06.05.2027 -
Isaac Price West Bromwich Albion Ativo 129 / 130 40% 1 06.05.2027 -
Tommy Conway Middlesbrough Ativo 133 / 122 40% 2 05.05.2027 -
Giacomo Raspadori Atalanta Ativo 147 / 136 40% 6 05.05.2027 -
Gonzalo Fulham Ativo 143 / 149 40% 2 03.05.2027 -
Cian Ashford Cardiff City Ativo 114 / 129 40% 2 03.05.2027 -
Gustavo Silva Vitoria Guimaraes Ativo 130 / 120 40% 2 30.04.2027 -
Tomáš Rigo Stoke City Ativo 126 / 135 40% 1 26.04.2027 -
Stanley Mills Oxford United Ativo 124 / 119 40% 2 25.04.2027 -
Jack Diamond Stockport County Ativo 121 / 111 40% 2 25.04.2027 -
Valery Académico de Viseu Ativo 126 / 131 40% 2 24.04.2027 -
Makan Aïko Tondela Ativo 128 / 123 40% 2 24.04.2027 -
Tom Fellows Southampton Ativo 139 / 130 40% 6 23.04.2027 -
Ollie Tanner Cardiff City Ativo 117 / 122 40% 3 23.04.2027 -
Enzo Le Fée Sunderland Ativo 143 / 149 40% 2 21.04.2027 -
Sonny Carey Charlton Athletic Ativo 125 / 127 40% 1 21.04.2027 -
Francisco Moura Lusitânia Lourosa Ativo 141 / 141 40% 1 21.04.2027 -
Ethan Williams Peterborough United Ativo 110 / 125 40% 2 20.04.2027 -
Shea Charles Southampton Ativo 132 / 144 40% 1 19.04.2027 -
Zeidane Inoussa Swansea City Ativo 122 / 114 40% 1 19.04.2027 -
Tshepang Moremi Orlando Pirates Ativo 115 / 120 40% 5 17.04.2027 -
Manu Pozo Torreense Ativo 126 / 110 40% 3 17.04.2027 -
Giorgi Chakvetadze Watford Ativo 134 / 128 40% 2 17.04.2027 -
Ole Pohlmann Rio Ave Ativo 118 / 108 40% 1 15.04.2027 -
João Mendes Vitoria Guimaraes Ativo 123 / 118 40% 1 15.04.2027 -
Derry Murkin Derby County Ativo 123 / 116 40% 1 14.04.2027 -
Derensili Sanches Fernandes Huddersfield Town Ativo 121 / 118 40% 3 13.04.2027 -
Kevin Fulham Ativo 153 / 156 40% 5 10.04.2027 -
Mandla Erasmus SuperSport United Ativo 118 / 116 40% 3 09.04.2027 -
Telmo Arcanjo Vitoria Guimaraes Ativo 116 / 122 40% 1 09.04.2027 -
Pau Víctor AVS Ativo 142 / 141 40% 4 07.04.2027 -
Naïs Djouahra Arouca Ativo 122 / 127 40% 2 07.04.2027 -
Ryan Sessegnon Fulham Ativo 150 / 149 40% 7 04.04.2027 -
Carlos Vicente Birmingham Ativo 152 / 150 40% 4 27.03.2027 -
Ezequiel Bullaude Santos Laguna Ativo 139 / 124 40% 3 27.03.2027 -
Tyrese Campbell Sheffield United Ativo 128 / 127 40% 1 27.03.2027 -
Vinícius Lopes Santa Clara Ativo 129 / 131 40% 4 26.03.2027 -
Rafik Guitane Estoril Praia Ativo 132 / 137 40% 5 26.03.2027 -
Ramiro Sordo Santos Laguna Ativo 120 / 127 40% 1 25.03.2027 -
Richard Koné Queens Park Rangers Ativo 122 / 135 40% 1 24.03.2027 -
Adrien Truffert Bournemouth Ativo 149 / 144 40% 2 23.03.2027 -
Iker Benito Queretaro Ativo 114 / 117 40% 2 18.03.2027 -
Kevin Vazquez Cruz Azul Ativo 147 / 134 40% 1 16.03.2027 -
Oswin Appollis Orlando Pirates Ativo 125 / 108 40% 3 15.03.2027 -
Paris Maghoma Norwich City Ativo 120 / 120 40% 1 15.03.2027 -
Emi Rodriguez Leon Ativo 117 / 134 40% 1 12.03.2027 -
Kasey McAteer Ipswich Town Ativo 123 / 124 40% 1 05.03.2027 -
Juanlu Bournemouth Ativo 139 / 141 40% 1 05.03.2027 -
Duk Atlas Ativo 106 / 108 40% 1 03.03.2027 -
Christian Krasnodar Ativo 134 / 130 40% 3 02.03.2027 -
Siyanda Ndlovu Bloemfontein Celtic Ativo 120 / 110 40% 1 02.03.2027 -
Marcelo Allende Mamelodi Sundowns Ativo 141 / 124 40% 3 01.03.2027 -
Benny Feirense Ativo 115 / 118 40% 1 01.03.2027 -
Williams Manyama SuperSport United Ativo 106 / 123 40% 4 26.02.2027 -
Lorougnon Gohi Académico de Viseu Ativo 118 / 125 40% 1 26.02.2027 -
Jordan Holsgrove Estoril Praia Ativo 139 / 141 40% 1 24.02.2027 -
Tidjany Touré Gil Vicente Ativo 120 / 127 40% 1 24.02.2027 -
Daniel Arcila Leon Ativo 120 / 105 40% 1 23.02.2027 -
Jason Knight Bristol City Ativo 121 / 128 40% 1 23.02.2027 -
Morgan Whittaker Middlesbrough Ativo 139 / 132 40% 1 19.02.2027 -
Richard Ledezma Guadalajara Ativo 139 / 142 40% 1 17.02.2027 -
Dinis Pinto Moreirense Ativo 136 / 135 40% 2 16.02.2027 -
Jack Rudoni Coventry City Ativo 137 / 131 40% 3 15.02.2027 -
Jefry Zapata Danubio Negociando 118 / 118 67% 1 01.01.2027 Aprovar
Soma Anzai FC Tokyo Ativo 124 / 112 40% 2 30.12.2026 -
Benjamin Kanurić SV Ried Ativo 100 / 114 40% 1 16.12.2026 -
Mduduzi Shabalala Kaizer Chiefs Ativo 104 / 105 40% 1 12.12.2026 -
Suleiman Camara Slovan Bratislava Ativo 126 / 108 40% 1 10.12.2026 -
Milan van Ewijk Mansfield Town Ativo 124 / 126 40% 1 09.12.2026 -
Víctor Gómez Braga Ativo 134 / 126 40% 2 05.12.2026 -
William Gomes Porto Ativo 145 / 146 40% 1 04.12.2026 -
Alan Lescano Argentinos Juniors Ativo 126 / 145 40% 1 02.12.2026 -
Pedro Vite Pumas UNAM Ativo 125 / 124 40% 1 29.11.2026 -
Georginio Rutter Brighton Ativo 153 / 158 40% 1 23.11.2026 -
Mario Dorgeles Braga Ativo 130 / 126 40% 2 22.11.2026 -
José Castillo Guadalajara Ativo 104 / 104 40% 1 19.11.2026 -
Tyler Adams Bournemouth Ativo 162 / 146 40% 1 17.11.2026 -
Ethan Galbraith Swansea City Ativo 142 / 129 40% 1 17.11.2026 -
Angelo Gattermayer Wolfsberger AC Ativo 117 / 130 40% 2 15.11.2026 -
Márcio Mendes Pandurii Ativo 128 / 115 40% 3 14.11.2026 -
Ricard Sánchez Estoril Praia Ativo 118 / 110 40% 1 11.11.2026 -
Justin Kluivert Bournemouth Ativo 155 / 149 40% 2 10.11.2026 -
Ozziel Herrera Tigres Ativo 125 / 139 40% 3 01.11.2026 -
Ramiro Ruiz Rodríguez Atlético Tucumán Ativo 135 / 125 40% 1 30.10.2026 -
Mayckel Lahdo Malmo FF Ativo 143 / 124 40% 1 30.10.2026 -
Alexis Cuello San Lorenzo Ativo 139 / 120 40% 2 26.10.2026 -
Tiago Palacios Estudiantes Ativo 122 / 143 40% 1 25.10.2026 -
Brian Gutiérrez Guadalajara Ativo 125 / 145 40% 1 19.10.2026 -
Mario Stroeykens Anderlecht Ativo 137 / 131 40% 1 17.10.2026 -
Xavi Simons Tottenham Ativo 145 / 154 40% 1 17.10.2026 -
Marquinhos Spartak Moscow Ativo 138 / 124 40% 2 14.10.2026 -
Jaminton Campaz Rosario Central Ativo 123 / 131 40% 1 09.10.2026 -
Facundo Mura Inter Miami CF Ativo 117 / 120 40% 1 09.10.2026 -
Bryan González Guadalajara Ativo 117 / 139 40% 2 07.10.2026 -
Antonio Galeano Remo Stars Ativo 129 / 119 40% 1 29.09.2026 -
Iván Angulo Orlando City Ativo 113 / 134 40% 1 22.09.2026 -
Griffin Yow New England Revolution Ativo 128 / 113 40% 1 19.09.2026 -
Matías Fernández Independiente Rivadavia Ativo 136 / 110 40% 1 15.09.2026 -
Siro Rosané Estudiantes Ativo 112 / 115 40% 1 15.09.2026 -
Martín Campos Ferro Carril Oeste Ativo 108 / 127 40% 1 14.09.2026 -
Alan Varela Porto Ativo 143 / 137 40% 1 12.09.2026 -
Diego Luna Real Salt Lake Ativo 123 / 139 40% 1 11.09.2026 -
Heorhii Sudakov Benfica Ativo 148 / 153 40% 1 10.09.2026 -
Joaquín Pereyra Minnesota United FC Ativo 129 / 123 40% 1 10.09.2026 -
Antony Portland Timbers Ativo 132 / 114 40% 1 08.09.2026 -
Félix Lemaréchal Club Brugge Ativo 140 / 144 40% 1 07.09.2026 -